createdAt,value
2022-08-05T00:00:01.230Z,8.13
2022-08-05T00:02:29.277Z,8.63
2022-08-05T00:04:57.991Z,7.68
2022-08-05T00:07:59.299Z,5.85
2022-08-05T00:10:14.432Z,8.70
2022-08-05T00:12:55.873Z,7.07
2022-08-05T00:15:55.174Z,9.35
2022-08-05T00:18:15.058Z,7.95
2022-08-05T00:20:50.766Z,7.25
2022-08-05T00:23:44.627Z,6.35
2022-08-05T00:26:07.885Z,6.07
2022-08-05T00:28:37.731Z,7.25
2022-08-05T00:31:08.578Z,6.90
2022-08-05T00:34:54.019Z,6.97
2022-08-05T00:37:11.700Z,6.25
2022-08-05T00:39:15.022Z,6.43
2022-08-05T00:41:55.260Z,5.50
2022-08-05T00:44:30.778Z,5.75
2022-08-05T00:47:03.760Z,4.93
2022-08-05T00:49:44.414Z,6.00
2022-08-05T00:52:28.310Z,6.40
2022-08-05T00:54:57.134Z,6.93
2022-08-05T00:57:31.888Z,7.88
2022-08-05T01:00:16.934Z,5.85
2022-08-05T01:02:45.161Z,9.15
2022-08-05T01:05:13.617Z,7.85
2022-08-05T01:08:39.826Z,7.40
2022-08-05T01:10:35.585Z,6.75
2022-08-05T01:13:13.265Z,7.90
2022-08-05T01:16:01.470Z,6.75
2022-08-05T01:18:34.998Z,10.43
2022-08-05T01:21:12.428Z,6.90
2022-08-05T01:24:14.094Z,9.95
2022-08-05T01:26:59.177Z,8.20
2022-08-05T01:29:34.975Z,10.48
2022-08-05T01:32:12.566Z,7.53
2022-08-05T01:34:51.925Z,8.75
2022-08-05T01:37:25.633Z,7.93
2022-08-05T01:39:59.095Z,7.03
2022-08-05T01:42:30.321Z,8.88
2022-08-05T01:45:03.130Z,7.40
2022-08-05T01:47:39.400Z,8.18
2022-08-05T01:50:15.427Z,6.53
2022-08-05T01:52:49.659Z,9.88
2022-08-05T01:55:20.879Z,11.13
2022-08-05T01:58:12.870Z,11.60
2022-08-05T02:00:45.181Z,10.88
2022-08-05T02:03:31.492Z,13.05
2022-08-05T02:06:03.586Z,8.18
2022-08-05T02:08:55.189Z,6.80
2022-08-05T02:11:33.436Z,11.95
2022-08-05T02:14:08.471Z,12.63
2022-08-05T02:16:52.777Z,12.20
2022-08-05T02:19:34.737Z,12.70
2022-08-05T02:22:10.770Z,10.48
2022-08-05T02:25:00.180Z,9.98
2022-08-05T02:27:58.389Z,12.68
2022-08-05T02:30:22.730Z,14.00
2022-08-05T02:32:55.369Z,8.75
2022-08-05T02:38:02.293Z,11.27
2022-08-05T02:40:32.616Z,14.35
2022-08-05T02:43:02.320Z,17.27
2022-08-05T02:45:51.545Z,8.40
2022-08-05T02:48:29.384Z,9.18
2022-08-05T02:51:00.946Z,11.07
2022-08-05T02:53:39.519Z,8.93
2022-08-05T02:56:16.020Z,10.38
2022-08-05T02:58:51.373Z,15.10
2022-08-05T03:01:27.160Z,14.70
2022-08-05T03:04:02.690Z,10.88
2022-08-05T03:06:56.224Z,15.02
2022-08-05T03:09:36.463Z,16.75
2022-08-05T03:12:08.226Z,7.88
2022-08-05T03:14:46.014Z,8.33
2022-08-05T03:17:14.586Z,13.57
2022-08-05T03:19:45.539Z,12.77
2022-08-05T03:22:16.072Z,15.25
2022-08-05T03:24:51.086Z,9.07
2022-08-05T03:27:21.129Z,12.70
2022-08-05T03:30:08.061Z,15.05
2022-08-05T03:32:40.395Z,9.15
2022-08-05T03:35:10.585Z,7.55
2022-08-05T03:37:46.131Z,8.13
2022-08-05T03:40:31.175Z,19.52
2022-08-05T03:43:58.580Z,10.93
2022-08-05T03:45:57.910Z,10.98
2022-08-05T03:48:27.414Z,10.77
2022-08-05T03:52:37.397Z,8.85
2022-08-05T03:55:51.763Z,14.43
2022-08-05T03:56:50.091Z,13.32
2022-08-05T03:59:21.653Z,9.65
2022-08-05T04:01:58.890Z,11.98
2022-08-05T04:04:30.528Z,13.15
2022-08-05T04:07:01.236Z,11.77
2022-08-05T04:09:32.603Z,10.05
2022-08-05T04:12:05.655Z,11.25
2022-08-05T04:14:57.735Z,11.27
2022-08-05T04:17:36.448Z,10.80
2022-08-05T04:20:20.253Z,11.65
2022-08-05T04:22:52.507Z,15.80
2022-08-05T04:25:38.472Z,8.40
2022-08-05T04:28:12.780Z,11.88
2022-08-05T04:30:41.199Z,12.93
2022-08-05T04:33:11.045Z,13.90
2022-08-05T04:36:16.261Z,9.15
2022-08-05T04:38:40.023Z,11.75
2022-08-05T04:41:10.010Z,11.40
2022-08-05T04:43:46.606Z,10.32
2022-08-05T04:46:27.810Z,13.90
2022-08-05T04:48:58.765Z,10.93
2022-08-05T04:51:30.273Z,9.45
2022-08-05T04:54:01.327Z,6.23
2022-08-05T04:56:34.326Z,9.53
2022-08-05T04:59:24.114Z,11.65
2022-08-05T05:02:07.504Z,11.45
2022-08-05T05:04:44.015Z,8.80
2022-08-05T05:07:12.612Z,11.20
2022-08-05T05:09:45.729Z,8.98
2022-08-05T05:12:14.939Z,10.35
2022-08-05T05:14:50.519Z,8.77
2022-08-05T05:17:23.687Z,7.18
2022-08-05T05:19:56.454Z,11.35
2022-08-05T05:22:26.382Z,11.55
2022-08-05T05:25:00.127Z,11.88
2022-08-05T05:27:44.712Z,7.85
2022-08-05T05:30:31.031Z,7.93
2022-08-05T05:33:08.901Z,7.75
2022-08-05T05:35:44.944Z,10.88
2022-08-05T05:38:22.507Z,13.68
2022-08-05T05:40:57.363Z,11.90
2022-08-05T05:43:56.513Z,9.98
2022-08-05T05:46:17.788Z,8.88
2022-08-05T05:48:48.879Z,9.63
2022-08-05T05:51:22.514Z,9.90
2022-08-05T05:53:57.161Z,15.45
2022-08-05T05:56:31.843Z,15.57
2022-08-05T05:59:05.261Z,16.80
2022-08-05T06:01:37.628Z,10.50
2022-08-05T06:04:08.012Z,9.68
2022-08-05T06:06:36.701Z,13.88
2022-08-05T06:09:05.872Z,14.23
2022-08-05T06:11:39.374Z,9.40
2022-08-05T06:14:07.630Z,10.57
2022-08-05T06:16:37.113Z,7.63
2022-08-05T06:19:07.949Z,14.13
2022-08-05T06:21:38.752Z,6.55
2022-08-05T06:24:11.852Z,12.13
2022-08-05T06:26:51.059Z,12.10
2022-08-05T06:29:46.670Z,19.63
2022-08-05T06:32:26.165Z,14.25
2022-08-05T06:34:58.730Z,12.02
2022-08-05T06:37:57.601Z,13.05
2022-08-05T06:40:18.061Z,19.52
2022-08-05T06:42:51.530Z,8.43
2022-08-05T06:46:02.899Z,10.57
2022-08-05T06:48:46.857Z,6.32
2022-08-05T06:50:58.076Z,7.45
2022-08-05T06:53:29.133Z,4.72
2022-08-05T06:55:58.283Z,7.47
2022-08-05T06:58:35.334Z,8.20
2022-08-05T07:01:07.082Z,6.03
2022-08-05T07:03:36.008Z,8.25
2022-08-05T07:06:14.144Z,6.55
2022-08-05T07:08:47.291Z,11.85
2022-08-05T07:11:16.228Z,9.55
2022-08-05T07:14:02.777Z,8.38
2022-08-05T07:18:08.749Z,7.00
2022-08-05T07:20:31.379Z,6.82
2022-08-05T07:22:30.226Z,8.85
2022-08-05T07:24:59.854Z,6.15
2022-08-05T07:28:00.632Z,9.43
2022-08-05T07:30:39.249Z,6.85
2022-08-05T07:33:10.421Z,5.32
2022-08-05T07:36:03.137Z,7.13
2022-08-05T07:38:35.682Z,7.53
2022-08-05T07:42:08.073Z,5.68
2022-08-05T07:44:14.465Z,7.20
2022-08-05T07:46:50.767Z,20.73
2022-08-05T07:49:20.439Z,5.95
2022-08-05T07:51:53.544Z,7.82
2022-08-05T07:54:30.271Z,6.15
2022-08-05T07:57:41.801Z,9.07
2022-08-05T07:59:48.916Z,5.68
2022-08-05T08:02:18.972Z,5.00
2022-08-05T08:04:48.629Z,8.65
2022-08-05T08:07:22.121Z,10.98
2022-08-05T08:09:53.150Z,8.68
2022-08-05T08:12:35.036Z,5.00
2022-08-05T08:15:09.511Z,3.95
2022-08-05T08:17:46.226Z,8.65
2022-08-05T08:21:00.126Z,7.13
2022-08-05T08:24:00.457Z,7.35
2022-08-05T08:26:04.534Z,9.07
2022-08-05T08:28:36.926Z,6.13
2022-08-05T08:31:14.961Z,6.00
2022-08-05T08:33:51.576Z,4.82
2022-08-05T08:36:38.428Z,6.40
2022-08-05T08:39:14.891Z,5.75
2022-08-05T08:41:50.815Z,7.82
2022-08-05T08:45:23.097Z,6.47
2022-08-05T08:48:06.694Z,5.05
2022-08-05T08:50:31.602Z,5.87
2022-08-05T08:53:07.927Z,6.82
2022-08-05T08:56:03.556Z,8.23
2022-08-05T08:58:43.455Z,7.53
2022-08-05T09:01:17.471Z,9.13
2022-08-05T09:03:48.218Z,5.03
2022-08-05T09:06:27.881Z,8.32
2022-08-05T09:08:58.555Z,5.28
2022-08-05T09:11:51.135Z,9.30
2022-08-05T09:14:58.319Z,8.15
2022-08-05T09:17:09.394Z,7.78
2022-08-05T09:19:55.109Z,5.72
2022-08-05T09:22:31.917Z,5.30
2022-08-05T09:25:02.233Z,4.90
2022-08-05T09:28:04.817Z,9.35
2022-08-05T09:30:35.656Z,6.65
2022-08-05T09:35:36.079Z,7.07
2022-08-05T09:38:12.310Z,4.25
2022-08-05T09:40:53.807Z,5.63
2022-08-05T09:43:41.366Z,6.85
2022-08-05T09:46:27.515Z,5.05
2022-08-05T09:49:07.792Z,3.65
2022-08-05T09:51:49.702Z,6.65
2022-08-05T09:57:02.048Z,5.65
2022-08-05T09:59:34.992Z,3.65
2022-08-05T10:02:07.851Z,6.32
2022-08-05T10:04:38.339Z,7.25
2022-08-05T10:07:20.294Z,4.82
2022-08-05T10:10:14.042Z,7.05
2022-08-05T10:12:49.644Z,6.38
2022-08-05T10:15:25.736Z,9.43
2022-08-05T10:18:09.570Z,8.35
2022-08-05T10:20:41.692Z,4.03
2022-08-05T10:23:33.890Z,4.63
2022-08-05T10:26:05.113Z,4.88
2022-08-05T10:28:36.550Z,7.05
2022-08-05T10:32:54.224Z,4.55
2022-08-05T10:33:54.402Z,6.55
2022-08-05T10:36:23.538Z,9.40
2022-08-05T10:39:00.821Z,11.52
2022-08-05T10:41:45.227Z,8.35
2022-08-05T10:44:19.272Z,5.88
2022-08-05T10:46:50.645Z,6.57
2022-08-05T10:49:27.188Z,7.07
2022-08-05T10:52:05.358Z,4.80
2022-08-05T10:54:56.093Z,7.70
2022-08-05T10:57:33.738Z,8.60
2022-08-05T11:00:20.094Z,7.22
2022-08-05T11:03:24.676Z,6.45
2022-08-05T11:06:06.268Z,5.45
2022-08-05T11:09:16.714Z,8.25
2022-08-05T11:11:52.740Z,6.78
2022-08-05T11:15:01.053Z,6.25
2022-08-05T11:17:59.748Z,7.40
2022-08-05T11:20:43.973Z,5.60
2022-08-05T11:24:05.409Z,5.15
2022-08-05T11:26:33.287Z,5.32
2022-08-05T11:29:06.638Z,6.90
2022-08-05T11:31:57.453Z,4.70
2022-08-05T11:34:39.573Z,7.53
2022-08-05T11:38:26.664Z,6.35
2022-08-05T11:40:03.440Z,4.45
2022-08-05T11:42:40.392Z,3.83
2022-08-05T11:45:14.232Z,6.50
2022-08-05T11:50:23.601Z,9.40
2022-08-05T11:52:57.663Z,6.47
2022-08-05T11:58:10.223Z,9.23
2022-08-05T12:00:41.573Z,6.88
2022-08-05T12:03:29.194Z,5.78
2022-08-05T12:06:02.593Z,8.40
2022-08-05T12:08:32.867Z,6.35
2022-08-05T12:11:05.658Z,7.43
2022-08-05T12:13:48.863Z,5.18
2022-08-05T12:16:20.027Z,5.38
2022-08-05T12:18:55.744Z,4.30
2022-08-05T12:21:26.973Z,7.13
2022-08-05T12:24:05.144Z,5.13
2022-08-05T12:26:36.578Z,6.00
2022-08-05T12:29:09.272Z,5.13
2022-08-05T12:31:42.356Z,5.30
2022-08-05T12:34:21.552Z,5.43
2022-08-05T12:36:53.405Z,5.80
2022-08-05T12:39:28.172Z,7.97
2022-08-05T12:42:10.315Z,4.40
2022-08-05T12:44:44.423Z,4.25
2022-08-05T12:47:13.745Z,4.72
2022-08-05T12:50:02.944Z,7.22
2022-08-05T12:52:39.332Z,6.20
2022-08-05T12:55:23.616Z,5.25
2022-08-05T13:02:01.594Z,6.78
2022-08-05T13:03:41.914Z,8.27
2022-08-05T13:06:18.152Z,6.90
2022-08-05T13:08:51.724Z,6.22
2022-08-05T13:12:01.139Z,5.70
2022-08-05T13:14:19.375Z,6.50
2022-08-05T13:16:50.400Z,5.75
2022-08-05T13:19:21.424Z,6.85
2022-08-05T13:21:56.711Z,6.63
2022-08-05T13:24:50.979Z,3.80
2022-08-05T13:27:17.172Z,6.00
2022-08-05T13:30:32.658Z,9.00
2022-08-05T13:32:50.724Z,8.48
2022-08-05T13:35:26.235Z,6.70
2022-08-05T13:38:15.750Z,5.20
2022-08-05T13:40:52.728Z,6.95
2022-08-05T13:43:22.217Z,5.85
2022-08-05T13:45:51.017Z,5.65
2022-08-05T13:48:58.177Z,6.78
2022-08-05T13:51:08.468Z,4.65
2022-08-05T13:53:47.885Z,6.35
2022-08-05T13:56:18.380Z,5.22
2022-08-05T13:58:52.963Z,6.97
2022-08-05T14:01:36.297Z,4.38
2022-08-05T14:04:29.718Z,5.15
2022-08-05T14:07:26.256Z,3.67
2022-08-05T14:09:48.712Z,6.10
2022-08-05T14:12:17.781Z,3.55
2022-08-05T14:15:00.669Z,5.00
2022-08-05T14:17:34.858Z,8.30
2022-08-05T14:20:07.757Z,5.22
2022-08-05T14:22:36.737Z,3.88
2022-08-05T14:25:21.657Z,5.50
2022-08-05T14:27:53.292Z,6.13
2022-08-05T14:30:21.697Z,6.20
2022-08-05T14:32:50.048Z,7.15
2022-08-05T14:35:20.861Z,9.23
2022-08-05T14:37:55.457Z,8.38
2022-08-05T14:40:25.350Z,4.10
2022-08-05T14:42:53.807Z,5.85
2022-08-05T14:45:24.568Z,7.72
2022-08-05T14:48:05.536Z,7.80
2022-08-05T14:50:40.734Z,7.05
2022-08-05T14:53:09.098Z,9.82
2022-08-05T14:55:40.094Z,6.70
2022-08-05T14:58:11.076Z,6.05
2022-08-05T15:00:58.761Z,4.97
2022-08-05T15:03:33.172Z,8.07
2022-08-05T15:06:07.890Z,8.25
2022-08-05T15:08:59.534Z,7.00
2022-08-05T15:11:51.223Z,6.35
2022-08-05T15:14:35.566Z,5.55
2022-08-05T15:17:46.162Z,6.50
2022-08-05T15:20:01.231Z,5.53
2022-08-05T15:22:29.768Z,8.73
2022-08-05T15:24:59.388Z,6.40
2022-08-05T15:27:32.156Z,10.35
2022-08-05T15:30:05.074Z,9.68
2022-08-05T15:32:33.295Z,5.68
2022-08-05T15:35:04.203Z,7.20
2022-08-05T15:38:34.763Z,7.72
2022-08-05T15:41:03.269Z,6.60
2022-08-05T15:43:22.005Z,8.85
2022-08-05T15:45:59.858Z,8.18
2022-08-05T15:48:30.129Z,6.03
2022-08-05T15:51:03.627Z,8.95
2022-08-05T15:53:38.507Z,6.45
2022-08-05T15:56:20.235Z,8.90
2022-08-05T15:58:50.360Z,6.32
2022-08-05T16:01:20.025Z,11.45
2022-08-05T16:03:50.549Z,7.75
2022-08-05T16:06:21.001Z,11.18
2022-08-05T16:08:55.444Z,6.53
2022-08-05T16:11:42.572Z,6.85
2022-08-05T16:14:17.397Z,8.77
2022-08-05T16:16:47.179Z,15.43
2022-08-05T16:19:25.598Z,7.20
2022-08-05T16:22:05.117Z,6.20
2022-08-05T16:24:39.989Z,7.60
2022-08-05T16:27:15.804Z,8.95
2022-08-05T16:29:51.084Z,9.07
2022-08-05T16:32:23.503Z,8.32
2022-08-05T16:34:58.719Z,11.68
2022-08-05T16:38:15.192Z,12.73
2022-08-05T16:40:28.640Z,11.02
2022-08-05T16:42:57.960Z,10.40
2022-08-05T16:46:03.644Z,8.98
2022-08-05T16:48:25.114Z,10.02
2022-08-05T16:50:54.628Z,11.50
2022-08-05T16:54:02.865Z,12.48
2022-08-05T16:56:12.156Z,8.45
2022-08-05T16:58:41.045Z,14.07
2022-08-05T17:01:11.181Z,11.40
2022-08-05T17:03:42.118Z,17.63
2022-08-05T17:06:11.441Z,11.77
2022-08-05T17:08:52.136Z,10.18
2022-08-05T17:11:25.484Z,10.98
2022-08-05T17:14:05.818Z,7.28
2022-08-05T17:16:37.989Z,8.57
2022-08-05T17:19:09.642Z,7.13
2022-08-05T17:24:27.943Z,6.80
2022-08-05T17:26:59.004Z,6.28
2022-08-05T17:29:33.887Z,8.75
2022-08-05T17:32:17.018Z,5.93
2022-08-05T17:34:55.450Z,5.28
2022-08-05T17:37:41.120Z,6.07
2022-08-05T17:40:17.230Z,8.70
2022-08-05T17:42:51.991Z,5.50
2022-08-05T17:45:23.048Z,5.47
2022-08-05T17:47:55.423Z,4.32
2022-08-05T17:53:02.502Z,4.15
2022-08-05T17:55:38.426Z,3.15
2022-08-05T17:58:13.366Z,3.45
2022-08-05T18:00:45.274Z,1.70
2022-08-05T18:03:58.950Z,3.92
2022-08-05T18:06:11.797Z,3.03
2022-08-05T18:08:45.103Z,3.00
2022-08-05T18:11:24.472Z,2.70
2022-08-05T18:14:03.712Z,1.88
2022-08-05T18:16:33.805Z,1.98
2022-08-05T18:19:04.762Z,5.07
2022-08-05T18:22:09.438Z,2.72
2022-08-05T18:24:25.006Z,4.45
2022-08-05T18:26:55.724Z,1.98
2022-08-05T18:29:41.172Z,4.30
2022-08-05T18:32:12.978Z,2.03
2022-08-05T18:34:43.532Z,3.17
2022-08-05T18:37:16.826Z,2.35
2022-08-05T18:40:31.435Z,2.60
2022-08-05T18:42:49.081Z,3.45
2022-08-05T18:45:17.324Z,4.75
2022-08-05T18:47:48.959Z,2.60
2022-08-05T18:50:45.167Z,2.40
2022-08-05T18:53:20.503Z,1.38
2022-08-05T18:55:52.925Z,2.08
2022-08-05T18:58:27.222Z,2.92
2022-08-05T19:00:57.811Z,3.33
2022-08-05T19:03:52.701Z,1.98
2022-08-05T19:06:22.441Z,2.03
2022-08-05T19:09:08.678Z,3.72
2022-08-05T19:12:00.409Z,2.92
2022-08-05T19:14:44.964Z,2.75
2022-08-05T19:17:14.426Z,3.58
2022-08-05T19:19:46.875Z,5.65
2022-08-05T19:22:18.737Z,2.97
2022-08-05T19:24:56.200Z,7.78
2022-08-05T19:27:27.758Z,6.78
2022-08-05T19:29:58.658Z,5.95
2022-08-05T19:32:27.810Z,5.80
2022-08-05T19:34:56.654Z,4.78
2022-08-05T19:37:35.015Z,5.68
2022-08-05T19:40:18.366Z,3.88
2022-08-05T19:43:04.770Z,4.72
2022-08-05T19:45:36.729Z,4.82
2022-08-05T19:48:06.240Z,5.53
2022-08-05T19:50:38.703Z,5.45
2022-08-05T19:53:10.611Z,5.90
2022-08-05T19:56:15.347Z,6.68
2022-08-05T19:58:29.681Z,5.25
2022-08-05T20:00:58.465Z,5.47
2022-08-05T20:03:40.776Z,3.58
2022-08-05T20:06:15.500Z,5.00
2022-08-05T20:08:47.418Z,4.25
2022-08-05T20:11:17.955Z,4.65
2022-08-05T20:13:58.539Z,7.30
2022-08-05T20:16:36.224Z,6.68
2022-08-05T20:19:06.078Z,6.50
2022-08-05T20:21:35.143Z,4.47
2022-08-05T20:24:11.590Z,4.28
2022-08-05T20:26:39.969Z,6.57
2022-08-05T20:29:26.918Z,5.30
2022-08-05T20:31:58.227Z,3.80
2022-08-05T20:34:30.150Z,4.22
2022-08-05T20:36:59.634Z,5.53
2022-08-05T20:39:35.522Z,2.97
2022-08-05T20:42:07.413Z,6.68
2022-08-05T20:44:39.915Z,5.53
2022-08-05T20:47:08.607Z,5.10
2022-08-05T20:49:39.917Z,6.43
2022-08-05T20:52:10.614Z,6.80
2022-08-05T20:55:15.720Z,4.90
2022-08-05T20:57:43.868Z,3.92
2022-08-05T21:00:34.951Z,4.07
2022-08-05T21:03:06.305Z,7.00
2022-08-05T21:05:48.067Z,4.10
2022-08-05T21:08:26.868Z,10.18
2022-08-05T21:11:09.130Z,5.65
2022-08-05T21:13:46.986Z,5.05
2022-08-05T21:16:30.082Z,5.88
2022-08-05T21:18:59.894Z,4.45
2022-08-05T21:21:43.715Z,3.47
2022-08-05T21:24:15.241Z,5.90
2022-08-05T21:26:58.539Z,5.18
2022-08-05T21:29:31.877Z,4.50
2022-08-05T21:32:01.881Z,4.45
2022-08-05T21:34:31.664Z,4.53
2022-08-05T21:37:01.128Z,7.00
2022-08-05T21:39:30.534Z,4.57
2022-08-05T21:44:33.186Z,5.82
2022-08-05T21:47:01.838Z,5.35
2022-08-05T21:49:56.528Z,5.80
2022-08-05T21:52:27.671Z,5.95
2022-08-05T21:54:57.800Z,7.05
2022-08-05T21:57:42.563Z,6.05
2022-08-05T22:00:12.841Z,5.57
2022-08-05T22:02:42.585Z,5.93
2022-08-05T22:05:12.156Z,5.97
2022-08-05T22:07:58.195Z,4.90
2022-08-05T22:10:28.497Z,6.00
2022-08-05T22:13:09.129Z,5.32
2022-08-05T22:16:02.601Z,7.82
2022-08-05T22:18:39.566Z,5.30
2022-08-05T22:21:19.156Z,12.90
2022-08-05T22:24:40.747Z,6.95
2022-08-05T22:28:09.183Z,6.40
2022-08-05T22:30:23.118Z,8.50
2022-08-05T22:32:51.410Z,5.88
2022-08-05T22:35:23.453Z,5.55
2022-08-05T22:37:58.717Z,3.90
2022-08-05T22:40:28.130Z,9.65
2022-08-05T22:42:59.157Z,5.65
2022-08-05T22:45:29.010Z,6.80
2022-08-05T22:47:58.925Z,3.35
2022-08-05T22:50:27.937Z,9.52
2022-08-05T22:52:58.867Z,5.45
2022-08-05T22:55:26.999Z,5.38
2022-08-05T22:58:05.665Z,6.60
2022-08-05T23:00:41.295Z,5.78
2022-08-05T23:03:09.399Z,4.28
2022-08-05T23:05:42.992Z,6.82
2022-08-05T23:08:13.189Z,6.55
2022-08-05T23:10:43.217Z,5.45
2022-08-05T23:13:11.274Z,4.57
2022-08-05T23:15:41.158Z,7.70
2022-08-05T23:18:15.900Z,6.28
2022-08-05T23:20:44.309Z,3.58
2022-08-05T23:23:13.092Z,5.70
2022-08-05T23:25:54.616Z,7.07
2022-08-05T23:28:28.541Z,3.95
2022-08-05T23:31:16.620Z,7.93
2022-08-05T23:34:04.732Z,4.47
2022-08-05T23:36:41.392Z,4.85
2022-08-05T23:39:17.409Z,5.65
2022-08-05T23:42:00.780Z,6.68
2022-08-05T23:44:31.204Z,7.85
2022-08-05T23:47:02.619Z,4.45
2022-08-05T23:52:30.800Z,3.75
2022-08-05T23:55:02.574Z,3.97
2022-08-05T23:57:36.984Z,5.30
